createdAt,value
2023-04-18T00:02:54.639Z,68.25
2023-04-18T00:05:52.806Z,68.41
2023-04-18T00:08:50.301Z,68.42
2023-04-18T00:11:48.422Z,68.73
2023-04-18T00:14:45.828Z,68.74
2023-04-18T00:17:44.077Z,68.95
2023-04-18T00:20:41.566Z,68.82
2023-04-18T00:23:40.500Z,68.98
2023-04-18T00:26:37.958Z,69.19
2023-04-18T00:29:36.274Z,69.14
2023-04-18T00:32:33.774Z,69.08
2023-04-18T00:35:32.561Z,69.36
2023-04-18T00:38:30.044Z,69.51
2023-04-18T00:41:28.859Z,69.49
2023-04-18T00:44:26.547Z,69.56
2023-04-18T00:47:24.037Z,69.56
2023-04-18T00:50:21.737Z,69.73
2023-04-18T00:53:19.154Z,69.81
2023-04-18T00:56:16.769Z,69.76
2023-04-18T00:59:14.380Z,69.86
2023-04-18T01:02:12.663Z,69.63
2023-04-18T01:05:10.605Z,69.89
2023-04-18T01:08:08.052Z,69.86
2023-04-18T01:11:05.966Z,69.89
2023-04-18T01:14:03.421Z,69.99
2023-04-18T01:17:02.260Z,69.99
2023-04-18T01:20:01.858Z,70.11
2023-04-18T01:22:59.484Z,70.13
2023-04-18T01:25:57.569Z,70.23
2023-04-18T01:28:55.202Z,70.24
2023-04-18T01:31:52.949Z,70.34
2023-04-18T01:34:50.383Z,70.37
2023-04-18T01:37:48.015Z,70.41
2023-04-18T01:40:46.153Z,70.44
2023-04-18T01:43:43.555Z,70.45
2023-04-18T01:46:41.347Z,70.70
2023-04-18T01:49:39.677Z,70.60
2023-04-18T01:52:37.333Z,70.38
2023-04-18T01:55:34.797Z,70.38
2023-04-18T01:58:32.547Z,70.60
2023-04-18T02:01:30.383Z,70.76
2023-04-18T02:04:27.834Z,70.67
2023-04-18T02:07:25.646Z,70.78
2023-04-18T02:10:23.114Z,70.94
2023-04-18T02:13:20.842Z,70.64
2023-04-18T02:16:18.227Z,70.73
2023-04-18T02:19:15.999Z,70.87
2023-04-18T02:22:13.491Z,70.72
2023-04-18T02:25:11.230Z,70.87
2023-04-18T02:28:08.980Z,71.05
2023-04-18T02:31:06.498Z,70.99
2023-04-18T02:34:04.683Z,71.39
2023-04-18T02:37:02.135Z,71.41
2023-04-18T02:39:59.799Z,71.44
2023-04-18T02:42:58.247Z,71.46
2023-04-18T02:45:56.336Z,71.52
2023-04-18T02:48:54.179Z,71.28
2023-04-18T02:51:51.569Z,71.46
2023-04-18T02:54:49.406Z,71.42
2023-04-18T02:57:46.973Z,71.50
2023-04-18T03:00:44.709Z,71.52
2023-04-18T03:03:42.498Z,71.56
2023-04-18T03:06:39.925Z,71.50
2023-04-18T03:09:37.484Z,71.63
2023-04-18T03:12:34.962Z,71.62
2023-04-18T03:15:32.686Z,71.74
2023-04-18T03:18:30.188Z,71.36
2023-04-18T03:21:27.820Z,71.69
2023-04-18T03:24:25.525Z,71.72
2023-04-18T03:27:22.942Z,71.64
2023-04-18T03:30:20.656Z,71.69
2023-04-18T03:33:18.216Z,71.99
2023-04-18T03:36:17.736Z,71.88
2023-04-18T03:39:15.159Z,71.98
2023-04-18T03:42:12.944Z,71.97
2023-04-18T03:45:10.727Z,71.99
2023-04-18T03:48:08.359Z,72.02
2023-04-18T03:51:06.032Z,72.04
2023-04-18T03:54:03.483Z,72.09
2023-04-18T03:57:01.177Z,72.16
2023-04-18T03:59:58.610Z,72.18
2023-04-18T04:02:56.478Z,72.27
2023-04-18T04:05:55.239Z,72.27
2023-04-18T04:08:52.703Z,72.29
2023-04-18T04:11:50.534Z,72.38
2023-04-18T04:14:47.976Z,72.38
2023-04-18T04:17:45.712Z,72.37
2023-04-18T04:20:43.191Z,72.54
2023-04-18T04:23:42.541Z,72.58
2023-04-18T04:26:40.302Z,72.52
2023-04-18T04:29:39.024Z,72.48
2023-04-18T04:32:36.788Z,72.62
2023-04-18T04:35:34.965Z,72.57
2023-04-18T04:38:32.735Z,72.61
2023-04-18T04:41:30.377Z,72.55
2023-04-18T04:44:28.612Z,72.58
2023-04-18T04:47:26.235Z,72.63
2023-04-18T04:50:24.085Z,72.71
2023-04-18T04:53:21.820Z,72.64
2023-04-18T04:56:19.270Z,72.65
2023-04-18T04:59:17.161Z,72.82
2023-04-18T05:02:14.729Z,72.85
2023-04-18T05:05:12.702Z,72.86
2023-04-18T05:08:10.407Z,72.88
2023-04-18T05:11:07.909Z,72.83
2023-04-18T05:14:05.538Z,72.60
2023-04-18T05:17:04.323Z,72.74
2023-04-18T05:20:02.065Z,72.79
2023-04-18T05:22:59.598Z,72.99
2023-04-18T05:25:57.196Z,72.93
2023-04-18T05:28:54.762Z,72.98
2023-04-18T05:31:54.086Z,72.99
2023-04-18T05:34:52.008Z,72.97
2023-04-18T05:37:49.427Z,72.97
2023-04-18T05:40:47.227Z,72.95
2023-04-18T05:43:51.041Z,73.02
2023-04-18T05:46:55.716Z,73.00
2023-04-18T05:49:53.551Z,72.90
2023-04-18T05:52:51.003Z,72.85
2023-04-18T05:55:49.575Z,72.88
2023-04-18T05:58:47.937Z,72.85
2023-04-18T06:01:45.625Z,72.90
2023-04-18T06:04:43.241Z,72.87
2023-04-18T06:07:41.864Z,72.83
2023-04-18T06:10:39.732Z,72.73
2023-04-18T06:13:37.607Z,72.81
2023-04-18T06:16:35.598Z,72.72
2023-04-18T06:19:33.075Z,72.57
2023-04-18T06:22:30.822Z,72.72
2023-04-18T06:25:28.261Z,72.72
2023-04-18T06:28:25.845Z,72.59
2023-04-18T06:31:23.476Z,72.67
2023-04-18T06:34:21.031Z,72.71
2023-04-18T06:37:18.754Z,72.58
2023-04-18T06:40:16.164Z,72.49
2023-04-18T06:43:15.416Z,72.39
2023-04-18T06:46:12.893Z,72.23
2023-04-18T06:49:10.923Z,72.21
2023-04-18T06:52:08.394Z,72.22
2023-04-18T06:55:07.382Z,72.13
2023-04-18T06:58:05.939Z,72.15
2023-04-18T07:01:03.414Z,72.11
2023-04-18T07:04:01.399Z,72.07
2023-04-18T07:06:58.960Z,71.94
2023-04-18T07:09:56.692Z,72.07
2023-04-18T07:12:54.144Z,72.11
2023-04-18T07:15:51.763Z,72.22
2023-04-18T07:18:49.501Z,72.16
2023-04-18T07:21:46.963Z,72.29
2023-04-18T07:24:44.585Z,72.26
2023-04-18T07:27:41.971Z,72.17
2023-04-18T07:30:39.747Z,72.13
2023-04-18T07:33:37.239Z,72.03
2023-04-18T07:36:35.001Z,71.92
2023-04-18T07:39:37.109Z,71.88
2023-04-18T07:42:34.514Z,71.77
2023-04-18T07:45:32.288Z,71.76
2023-04-18T07:48:29.743Z,71.63
2023-04-18T07:51:31.814Z,71.57
2023-04-18T07:54:29.241Z,71.67
2023-04-18T07:57:27.002Z,71.63
2023-04-18T08:00:24.732Z,71.59
2023-04-18T08:03:22.360Z,71.43
2023-04-18T08:06:20.634Z,71.28
2023-04-18T08:09:20.614Z,71.21
2023-04-18T08:12:19.055Z,71.22
2023-04-18T08:15:16.471Z,71.15
2023-04-18T08:18:14.069Z,71.10
2023-04-18T08:21:11.878Z,71.01
2023-04-18T08:24:09.344Z,70.97
2023-04-18T08:27:07.012Z,70.83
2023-04-18T08:30:04.856Z,70.69
2023-04-18T08:33:03.131Z,70.72
2023-04-18T08:36:00.624Z,70.64
2023-04-18T08:38:58.361Z,70.57
2023-04-18T08:41:55.896Z,70.44
2023-04-18T08:44:54.136Z,70.44
2023-04-18T08:47:52.550Z,70.44
2023-04-18T08:50:50.026Z,70.43
2023-04-18T08:53:48.622Z,70.29
2023-04-18T08:56:46.368Z,70.26
2023-04-18T08:59:47.122Z,70.19
2023-04-18T09:02:47.289Z,70.12
2023-04-18T09:05:47.256Z,69.99
2023-04-18T09:08:45.010Z,69.92
2023-04-18T09:11:42.478Z,69.84
2023-04-18T09:14:43.387Z,69.71
2023-04-18T09:17:42.395Z,69.50
2023-04-18T09:20:41.425Z,69.32
2023-04-18T09:23:40.759Z,69.11
2023-04-18T09:26:39.548Z,69.12
2023-04-18T09:29:37.142Z,68.66
2023-04-18T09:32:34.571Z,68.33
2023-04-18T09:35:33.699Z,68.14
2023-04-18T09:38:31.462Z,67.56
2023-04-18T09:41:30.648Z,67.33
2023-04-18T09:44:28.706Z,66.93
2023-04-18T09:47:26.445Z,66.33
2023-04-18T09:50:24.455Z,65.71
2023-04-18T09:53:22.139Z,65.29
2023-04-18T09:56:20.080Z,64.83
2023-04-18T09:59:20.993Z,64.41
2023-04-18T10:02:18.849Z,64.30
2023-04-18T10:05:19.573Z,63.82
2023-04-18T10:08:18.428Z,63.29
2023-04-18T10:11:16.812Z,63.02
2023-04-18T10:14:16.266Z,64.64
2023-04-18T10:17:14.233Z,62.65
2023-04-18T10:20:12.009Z,62.82
2023-04-18T10:23:09.467Z,60.78
2023-04-18T10:26:07.155Z,59.99
2023-04-18T10:29:04.577Z,59.42
2023-04-18T10:32:02.191Z,59.82
2023-04-18T10:34:59.938Z,59.35
2023-04-18T10:37:57.381Z,59.82
2023-04-18T10:40:55.067Z,60.02
2023-04-18T10:43:52.535Z,59.99
2023-04-18T10:46:50.203Z,59.97
2023-04-18T10:49:47.663Z,60.44
2023-04-18T10:52:45.385Z,60.58
2023-04-18T10:55:42.878Z,60.77
2023-04-18T10:58:40.577Z,60.71
2023-04-18T11:01:38.318Z,61.01
2023-04-18T11:04:35.945Z,60.85
2023-04-18T11:07:33.632Z,59.80
2023-04-18T11:10:31.387Z,59.23
2023-04-18T11:13:28.779Z,58.24
2023-04-18T11:16:26.453Z,58.15
2023-04-18T11:19:24.597Z,57.27
2023-04-18T11:22:22.239Z,57.00
2023-04-18T11:25:19.734Z,57.35
2023-04-18T11:28:17.426Z,56.63
2023-04-18T11:31:18.150Z,56.94
2023-04-18T11:34:15.759Z,56.92
2023-04-18T11:37:13.812Z,57.45
2023-04-18T11:40:11.258Z,58.09
2023-04-18T11:43:08.929Z,58.56
2023-04-18T11:46:06.726Z,58.89
2023-04-18T11:49:04.485Z,58.90
2023-04-18T11:52:02.627Z,58.97
2023-04-18T11:55:00.187Z,58.61
2023-04-18T11:57:57.959Z,58.50
2023-04-18T12:00:55.503Z,58.69
2023-04-18T12:03:53.358Z,58.15
2023-04-18T12:06:50.929Z,57.61
2023-04-18T12:09:48.713Z,57.47
2023-04-18T12:12:46.349Z,57.31
2023-04-18T12:15:44.691Z,57.44
2023-04-18T12:18:43.109Z,57.48
2023-04-18T12:21:40.578Z,57.50
2023-04-18T12:24:38.361Z,57.73
2023-04-18T12:27:35.792Z,57.62
2023-04-18T12:30:35.334Z,57.72
2023-04-18T12:33:36.952Z,57.85
2023-04-18T12:36:34.439Z,58.00
2023-04-18T12:39:32.211Z,58.41
2023-04-18T12:42:29.678Z,58.65
2023-04-18T12:45:27.458Z,58.90
2023-04-18T12:48:25.141Z,59.03
2023-04-18T12:51:23.400Z,59.39
2023-04-18T12:54:21.874Z,59.93
2023-04-18T12:57:19.275Z,60.24
2023-04-18T13:00:18.209Z,60.28
2023-04-18T13:03:15.713Z,60.41
2023-04-18T13:06:13.434Z,60.65
2023-04-18T13:09:11.137Z,61.10
2023-04-18T13:12:08.683Z,61.33
2023-04-18T13:15:07.283Z,61.51
2023-04-18T13:18:06.746Z,61.77
2023-04-18T13:21:04.570Z,62.05
2023-04-18T13:24:02.061Z,62.20
2023-04-18T13:27:01.277Z,62.37
2023-04-18T13:29:59.372Z,62.52
2023-04-18T13:32:57.423Z,62.77
2023-04-18T13:35:55.013Z,62.89
2023-04-18T13:38:52.468Z,63.23
2023-04-18T13:41:50.138Z,63.31
2023-04-18T13:44:47.607Z,63.35
2023-04-18T13:47:45.458Z,63.34
2023-04-18T13:50:42.984Z,63.37
2023-04-18T13:53:40.825Z,63.59
2023-04-18T13:56:39.627Z,63.48
2023-04-18T13:59:37.057Z,63.39
2023-04-18T14:02:34.973Z,63.30
2023-04-18T14:05:32.542Z,63.32
2023-04-18T14:08:30.274Z,63.45
2023-04-18T14:11:27.831Z,63.60
2023-04-18T14:14:26.195Z,63.61
2023-04-18T14:17:23.910Z,63.71
2023-04-18T14:20:21.350Z,63.74
2023-04-18T14:23:21.353Z,63.81
2023-04-18T14:26:18.795Z,63.99
2023-04-18T14:29:16.849Z,64.12
2023-04-18T14:32:14.394Z,64.20
2023-04-18T14:35:12.106Z,64.76
2023-04-18T14:38:09.528Z,65.52
2023-04-18T14:41:07.423Z,66.12
2023-04-18T14:44:05.133Z,66.25
2023-04-18T14:47:02.691Z,66.39
2023-04-18T14:50:00.548Z,67.00
2023-04-18T14:52:58.061Z,67.35
2023-04-18T14:55:56.658Z,67.82
2023-04-18T14:58:54.132Z,68.18
2023-04-18T15:01:52.576Z,68.34
2023-04-18T15:04:50.450Z,68.98
2023-04-18T15:07:48.054Z,69.18
2023-04-18T15:10:48.399Z,69.21
2023-04-18T15:13:47.606Z,69.37
2023-04-18T15:16:45.417Z,69.55
2023-04-18T15:19:42.849Z,69.53
2023-04-18T15:22:40.690Z,69.49
2023-04-18T15:25:38.189Z,69.80
2023-04-18T15:28:36.126Z,69.82
2023-04-18T15:31:34.177Z,69.65
2023-04-18T15:34:31.796Z,69.72
2023-04-18T15:37:29.605Z,70.07
2023-04-18T15:40:27.000Z,70.51
2023-04-18T15:43:24.505Z,70.69
2023-04-18T15:46:23.351Z,70.88
2023-04-18T15:49:20.975Z,70.75
2023-04-18T15:52:18.662Z,70.50
2023-04-18T15:55:16.525Z,70.35
2023-04-18T15:58:14.297Z,71.04
2023-04-18T16:01:12.135Z,71.12
2023-04-18T16:04:09.840Z,71.42
2023-04-18T16:07:08.448Z,71.51
2023-04-18T16:10:09.033Z,71.58
2023-04-18T16:13:06.791Z,71.76
2023-04-18T16:19:04.780Z,72.54
2023-04-18T16:22:02.256Z,72.51
2023-04-18T16:25:01.367Z,72.67
2023-04-18T16:27:58.805Z,73.13
2023-04-18T16:30:56.787Z,73.55
2023-04-18T16:33:54.342Z,74.04
2023-04-18T16:36:52.629Z,74.35
2023-04-18T16:39:51.356Z,74.59
2023-04-18T16:42:49.087Z,75.27
2023-04-18T16:45:47.435Z,75.27
2023-04-18T16:48:45.422Z,76.07
2023-04-18T16:51:43.202Z,76.55
2023-04-18T16:54:41.046Z,76.56
2023-04-18T16:57:38.938Z,77.13
2023-04-18T17:00:38.378Z,77.01
2023-04-18T17:03:37.004Z,77.35
2023-04-18T17:06:35.423Z,77.51
2023-04-18T17:09:33.069Z,77.90
2023-04-18T17:12:30.845Z,78.03
2023-04-18T17:15:28.692Z,78.48
2023-04-18T17:18:26.495Z,78.28
2023-04-18T17:21:24.273Z,78.08
2023-04-18T17:24:23.102Z,77.91
2023-04-18T17:27:21.642Z,77.86
2023-04-18T17:30:19.727Z,78.40
2023-04-18T17:33:17.966Z,78.22
2023-04-18T17:36:19.558Z,78.18
2023-04-18T17:39:17.757Z,78.09
2023-04-18T17:42:16.416Z,78.03
2023-04-18T17:45:14.593Z,78.46
2023-04-18T17:48:13.459Z,78.60
2023-04-18T17:51:15.042Z,78.85
2023-04-18T17:54:14.231Z,78.34
2023-04-18T17:57:15.020Z,78.69
2023-04-18T18:00:16.521Z,78.93
2023-04-18T18:03:15.355Z,79.00
2023-04-18T18:06:13.222Z,78.93
2023-04-18T18:09:13.453Z,79.08
2023-04-18T18:12:12.523Z,78.89
2023-04-18T18:15:11.391Z,78.74
2023-04-18T18:18:09.232Z,79.08
2023-04-18T18:21:07.408Z,79.36
2023-04-18T18:24:06.263Z,79.48
2023-04-18T18:27:04.338Z,79.60
2023-04-18T18:30:04.363Z,79.70
2023-04-18T18:33:03.409Z,79.82
2023-04-18T18:36:02.142Z,79.80
2023-04-18T18:39:01.437Z,79.91
2023-04-18T18:42:01.181Z,79.81
2023-04-18T18:44:59.163Z,79.64
2023-04-18T18:47:57.266Z,79.73
2023-04-18T18:50:56.808Z,79.58
2023-04-18T18:53:54.983Z,79.72
2023-04-18T18:56:53.580Z,79.97
2023-04-18T18:59:51.561Z,80.07
2023-04-18T19:02:50.827Z,80.01
2023-04-18T19:05:49.335Z,79.95
2023-04-18T19:08:49.148Z,80.05
2023-04-18T19:11:49.687Z,80.29
2023-04-18T19:14:48.166Z,80.46
2023-04-18T19:17:46.699Z,80.60
2023-04-18T19:20:44.949Z,80.61
2023-04-18T19:23:43.523Z,80.11
2023-04-18T19:26:43.038Z,80.34
2023-04-18T19:29:43.273Z,80.39
2023-04-18T19:32:41.753Z,80.65
2023-04-18T19:35:40.637Z,80.32
2023-04-18T19:38:39.400Z,80.39
2023-04-18T19:41:37.489Z,80.48
2023-04-18T19:44:35.878Z,80.64
2023-04-18T19:47:36.278Z,80.89
2023-04-18T19:50:35.814Z,81.03
2023-04-18T19:53:33.720Z,80.92
2023-04-18T19:56:31.756Z,80.72
2023-04-18T19:59:32.195Z,80.63
2023-04-18T20:02:33.651Z,80.71
2023-04-18T20:05:33.488Z,81.00
2023-04-18T20:08:33.270Z,80.78
2023-04-18T20:11:32.375Z,80.77
2023-04-18T20:14:34.982Z,81.07
2023-04-18T20:17:35.519Z,80.76
2023-04-18T20:20:34.409Z,80.85
2023-04-18T20:23:33.363Z,80.93
2023-04-18T20:26:32.219Z,81.00
2023-04-18T20:29:32.518Z,80.86
2023-04-18T20:32:32.837Z,80.94
2023-04-18T20:35:32.537Z,80.77
2023-04-18T20:38:30.895Z,80.84
2023-04-18T20:41:29.810Z,81.01
2023-04-18T20:44:30.907Z,81.00
2023-04-18T20:47:28.724Z,81.00
2023-04-18T20:50:29.636Z,80.91
2023-04-18T20:53:28.974Z,80.90
2023-04-18T20:56:28.694Z,80.98
2023-04-18T20:59:26.609Z,80.80
2023-04-18T21:02:26.945Z,80.57
2023-04-18T21:05:24.601Z,80.57
2023-04-18T21:08:22.220Z,80.55
2023-04-18T21:11:19.960Z,80.58
2023-04-18T21:14:17.616Z,80.63
2023-04-18T21:17:17.756Z,80.55
2023-04-18T21:20:15.175Z,80.22
2023-04-18T21:23:12.836Z,80.10
2023-04-18T21:26:10.532Z,80.08
2023-04-18T21:29:08.000Z,79.88
2023-04-18T21:32:05.767Z,79.74
2023-04-18T21:35:03.216Z,79.64
2023-04-18T21:38:02.634Z,79.51
2023-04-18T21:41:00.051Z,79.50
2023-04-18T21:43:57.740Z,79.60
2023-04-18T21:46:55.531Z,79.60
2023-04-18T21:49:52.967Z,79.71
2023-04-18T21:52:50.975Z,79.71
2023-04-18T21:55:48.407Z,79.88
2023-04-18T21:58:46.129Z,79.92
2023-04-18T22:01:45.393Z,80.11
2023-04-18T22:04:44.403Z,80.24
2023-04-18T22:07:50.547Z,80.31
2023-04-18T22:10:56.041Z,80.32
2023-04-18T22:13:54.787Z,80.41
2023-04-18T22:16:52.275Z,80.49
2023-04-18T22:19:50.854Z,80.48
2023-04-18T22:22:48.267Z,80.22
2023-04-18T22:25:46.134Z,80.11
2023-04-18T22:28:43.836Z,79.86
2023-04-18T22:31:41.293Z,79.74
2023-04-18T22:34:38.950Z,79.72
2023-04-18T22:37:36.348Z,79.74
2023-04-18T22:40:34.119Z,79.65
2023-04-18T22:43:31.564Z,79.61
2023-04-18T22:46:29.288Z,79.36
2023-04-18T22:49:27.717Z,79.12
2023-04-18T22:52:25.586Z,79.10
2023-04-18T22:55:23.042Z,78.97
2023-04-18T22:58:20.653Z,78.81
2023-04-18T23:01:18.890Z,78.73
2023-04-18T23:04:16.635Z,78.72
2023-04-18T23:07:14.606Z,78.64
2023-04-18T23:10:12.060Z,78.71
2023-04-18T23:13:09.834Z,78.65
2023-04-18T23:16:07.675Z,78.70
2023-04-18T23:37:39.284Z,79.72
2023-04-18T23:40:37.067Z,79.91
2023-04-18T23:43:34.702Z,80.07
2023-04-18T23:46:33.349Z,80.25
2023-04-18T23:49:32.164Z,80.35
2023-04-18T23:52:29.576Z,80.39
2023-04-18T23:55:27.319Z,80.37
2023-04-18T23:58:26.744Z,80.27
